WXM80 ListenWXM80 Stop

You find our weather info also at:

UK Metoffice

WeatherCloud

Weather Underground

Northeastern Weather Network

AWEKAS

Citizen Weather Observer Program (CWOP)

HAMweather, WeatherForYou, PWS Weather


Weather Underground History page Text

Daily Summary for May 22, 2017 Units:  Metric    English   Both
« Previous Day
Next Day »
Daily Weekly Monthly Yearly Custom
  High: Low: Average:
Temperature: 16.1 °C 11.1 °C 13.9 °C
Dew Point: 15.6 °C 5.5 °C 12.1 °C
Humidity: 97 % 58 % 89 %
Wind Speed: 8.2 km/h 0 km/h 1.1 km/h
Wind Gust: 18.5 km/h - -
Wind:- - South
Pressure: 1023.2 hPa 1012.8 hPa -
Precipitation: 14.99 mm    
Historical Graphs
 
 
Tabular Data for May 22, 2017
Time Temperature Dew Point Pressure Wind Wind Speed Wind Gust Humidity Rainfall Rate (Hourly)
00:03 13.6 °C 6 °C 1023.2 hPa SE 0.2 km/h 1.6 km/h 60 % 0 mm
00:08 13.6 °C 5.7 °C 1023.2 hPa SE 4 km/h 6.4 km/h 59 % 0 mm
00:13 13.6 °C 5.7 °C 1023.2 hPa SE 0.3 km/h 1.9 km/h 59 % 0 mm
00:18 13.6 °C 5.5 °C 1022.9 hPa SSE 6.1 km/h 11.1 km/h 58 % 0 mm
00:23 13.7 °C 5.8 °C 1022.9 hPa SSE 1 km/h 3.7 km/h 59 % 0 mm
00:28 13.7 °C 5.8 °C 1022.6 hPa SE 2.1 km/h 5.6 km/h 59 % 0 mm
00:33 13.7 °C 5.6 °C 1022.6 hPa Calm   5.6 km/h 58 % 0 mm
00:38 13.7 °C 5.6 °C 1022.6 hPa SE 4 km/h 5.6 km/h 58 % 0 mm
00:43 13.7 °C 5.6 °C 1022.6 hPa Calm   1.9 km/h 58 % 0 mm
00:48 13.7 °C 5.8 °C 1022.6 hPa SSE 0.3 km/h 1.9 km/h 59 % 0 mm
00:53 13.7 °C 5.8 °C 1022.6 hPa SE 2.1 km/h 5.6 km/h 59 % 0 mm
00:58 13.7 °C 5.8 °C 1022.6 hPa SSE 1.1 km/h 5.6 km/h 59 % 0 mm
01:03 13.7 °C 5.8 °C 1022.6 hPa WSW 2.9 km/h 5.6 km/h 59 % 0 mm
01:08 13.7 °C 5.8 °C 1022.6 hPa Calm   1.9 km/h 59 % 0 mm
01:13 13.7 °C 5.8 °C 1022.6 hPa Calm   1.9 km/h 59 % 0 mm
01:18 13.7 °C 5.8 °C 1022.2 hPa SSE 2.3 km/h 5.6 km/h 59 % 0 mm
01:23 13.7 °C 5.8 °C 1022.2 hPa SE 1 km/h 3.7 km/h 59 % 0 mm
01:29 13.7 °C 6.1 °C 1021.9 hPa SE 4.7 km/h 7.4 km/h 60 % 0 mm
01:34 13.7 °C 6.1 °C 1021.9 hPa SE 1.4 km/h 6.4 km/h 60 % 0 mm
01:39 13.7 °C 5.8 °C 1021.9 hPa SE 0.2 km/h 5.6 km/h 59 % 0 mm
01:44 13.7 °C 5.8 °C 1021.9 hPa SSE 2.1 km/h 11.1 km/h 59 % 0 mm
01:49 13.7 °C 5.8 °C 1021.9 hPa Calm     59 % 0 mm
01:54 13.7 °C 5.8 °C 1021.9 hPa SE 5.6 km/h 9.3 km/h 59 % 0 mm
01:59 13.8 °C 5.9 °C 1021.9 hPa Calm     59 % 0 mm
02:04 13.8 °C 6.2 °C 1021.9 hPa Calm     60 % 0 mm
02:09 13.8 °C 6.4 °C 1021.9 hPa Calm   1.9 km/h 61 % 0 mm
02:14 13.8 °C 6.4 °C 1021.9 hPa Calm   3.7 km/h 61 % 0 mm
02:19 13.8 °C 6.6 °C 1021.9 hPa WSW 2.6 km/h 5.6 km/h 62 % 0 mm
02:24 13.8 °C 6.6 °C 1021.9 hPa WSW 2.3 km/h 5.6 km/h 62 % 0 mm
02:29 13.7 °C 6.6 °C 1021.9 hPa WSW 0.2 km/h 3.2 km/h 62 % 0 mm
02:34 13.7 °C 7.3 °C 1021.6 hPa Calm   1.9 km/h 65 % 0 mm
02:36 13.7 °C 7 °C 1021.6 hPa WSW 0.3 km/h 1.9 km/h 64 % 0 mm
02:41 13.7 °C 7 °C 1021.6 hPa Calm     64 % 0 mm
02:46 13.6 °C 7.2 °C 1021.6 hPa Calm   3.7 km/h 65 % 0 mm
02:51 13.6 °C 7.1 °C 1021.6 hPa Calm   1.9 km/h 65 % 0 mm
02:56 13.6 °C 7.6 °C 1021.6 hPa Calm   1.9 km/h 67 % 0 mm
03:01 13.5 °C 7.5 °C 1021.6 hPa Calm     67 % 0 mm
03:06 13.4 °C 7.7 °C 1021.6 hPa Calm     68 % 0 mm
03:11 13.4 °C 7.8 °C 1021.6 hPa WSW 1.8 km/h 5.6 km/h 69 % 0 mm
03:16 13.3 °C 7.8 °C 1021.6 hPa Calm     69 % 0 mm
03:21 13.3 °C 7.7 °C 1021.6 hPa Calm     69 % 0 mm
03:26 13.2 °C 7.9 °C 1021.6 hPa Calm     70 % 0 mm
03:31 13.2 °C 7.9 °C 1021.6 hPa Calm     70 % 0 mm
03:36 13.2 °C 8 °C 1021.6 hPa Calm     71 % 0 mm
03:41 13.1 °C 7.9 °C 1021.6 hPa Calm     71 % 0 mm
03:46 13.1 °C 7.9 °C 1021.6 hPa Calm     71 % 0 mm
03:52 13 °C 8.7 °C 1021.6 hPa Calm     75 % 0.25 mm
03:57 12.9 °C 8.8 °C 1021.6 hPa Calm     76 % 0.25 mm
04:02 12.8 °C 9.1 °C 1021.6 hPa Calm     78 % 0.25 mm
04:07 12.8 °C 9.2 °C 1021.6 hPa Calm     79 % 0.25 mm
04:12 12.7 °C 9.6 °C 1021.2 hPa Calm     81 % 0.25 mm
04:17 12.7 °C 9.3 °C 1021.2 hPa Calm     80 % 0.51 mm
04:22 12.6 °C 9.6 °C 1021.2 hPa Calm     82 % 0.51 mm
04:27 12.6 °C 9.9 °C 1021.2 hPa Calm     84 % 0.51 mm
04:32 12.5 °C 10.1 °C 1021.2 hPa Calm   1.9 km/h 85 % 2.03 mm
04:37 12.4 °C 10.1 °C 1021.2 hPa Calm     86 % 2.54 mm
04:42 12.3 °C 10.2 °C 1021.2 hPa Calm     87 % 2.79 mm
04:47 12.3 °C 10.3 °C 1021.6 hPa Calm     88 % 3.05 mm
04:52 12.2 °C 10.3 °C 1021.6 hPa Calm     88 % 3.05 mm
04:57 12.2 °C 10.4 °C 1021.2 hPa NW 2.3 km/h 3.7 km/h 89 % 3.3 mm
05:02 12.1 °C 10.3 °C 1021.2 hPa Calm     89 % 3.56 mm
05:07 11.9 °C 10.2 °C 1020.9 hPa Calm     89 % 3.56 mm
05:12 11.8 °C 9.9 °C 1021.2 hPa Calm     88 % 3.81 mm
05:17 11.8 °C 9.8 °C 1021.2 hPa Calm     88 % 3.56 mm
05:22 11.7 °C 9.7 °C 1021.2 hPa Calm     88 % 3.56 mm
05:27 11.6 °C 9.6 °C 1020.9 hPa Calm     88 % 3.56 mm
05:32 11.5 °C 9.7 °C 1020.9 hPa Calm     89 % 2.03 mm
05:38 11.4 °C 9.9 °C 1020.9 hPa Calm     90 % 1.52 mm
05:43 11.3 °C 9.9 °C 1020.9 hPa Calm     91 % 1.27 mm
05:48 11.3 °C 9.9 °C 1020.9 hPa Calm   1.9 km/h 91 % 1.02 mm
05:53 11.3 °C 10 °C 1020.5 hPa Calm     92 % 0.76 mm
05:58 11.2 °C 9.9 °C 1020.9 hPa NW 0.3 km/h 1.9 km/h 92 % 0.25 mm
06:03 11.1 °C 9.7 °C 1020.9 hPa Calm     91 % 0.25 mm
06:08 11.1 °C 9.7 °C 1020.9 hPa Calm     91 % 0.25 mm
06:13 11.1 °C 9.7 °C 1020.9 hPa Calm     91 % 0 mm
06:18 11.1 °C 9.7 °C 1020.9 hPa Calm     91 % 0 mm
06:23 11.1 °C 9.8 °C 1020.9 hPa Calm     92 % 0 mm
06:28 11.1 °C 10 °C 1020.9 hPa Calm     93 % 0 mm
06:33 11.1 °C 10 °C 1020.9 hPa Calm     93 % 0 mm
06:38 11.1 °C 10 °C 1020.9 hPa Calm     93 % 0 mm
06:43 11.1 °C 10 °C 1020.9 hPa Calm     93 % 0 mm
06:48 11.1 °C 9.9 °C 1020.5 hPa Calm     93 % 0 mm
06:53 11.1 °C 10 °C 1020.5 hPa Calm   3.7 km/h 93 % 0 mm
06:58 11.2 °C 10.1 °C 1020.9 hPa Calm     93 % 0 mm
07:03 11.2 °C 10.3 °C 1020.9 hPa Calm   1.9 km/h 94 % 0 mm
07:08 11.3 °C 10.3 °C 1020.5 hPa South 1.6 km/h 3.2 km/h 94 % 0 mm
07:13 11.3 °C 10.3 °C 1020.5 hPa South 0.6 km/h 1.9 km/h 94 % 0 mm
07:18 11.3 °C 10.3 °C 1020.5 hPa SE 1.9 km/h 5.6 km/h 94 % 0 mm
07:23 11.3 °C 10.4 °C 1020.5 hPa SE 0.8 km/h 1.9 km/h 94 % 0 mm
07:28 11.4 °C 10.4 °C 1020.5 hPa SE 0.3 km/h 1.9 km/h 94 % 0 mm
07:33 11.4 °C 10.5 °C 1020.5 hPa Calm   1.9 km/h 94 % 0 mm
07:38 11.6 °C 10.8 °C 1020.5 hPa Calm     95 % 0 mm
07:39 11.6 °C 10.8 °C 1020.5 hPa Calm   1.9 km/h 95 % 0 mm
07:44 11.6 °C 10.6 °C 1020.5 hPa Calm   1.9 km/h 94 % 0 mm
07:49 11.6 °C 10.8 °C 1020.5 hPa Calm   1.9 km/h 95 % 0 mm
07:54 11.7 °C 10.9 °C 1020.9 hPa Calm     95 % 0 mm
07:59 11.7 °C 10.9 °C 1020.9 hPa Calm     95 % 0 mm
08:04 11.8 °C 11 °C 1020.5 hPa Calm     95 % 0 mm
08:09 11.8 °C 11.1 °C 1020.5 hPa NNE 0.2 km/h   95 % 0 mm
08:14 11.8 °C 11.1 °C 1020.5 hPa ENE 0.5 km/h 3.7 km/h 95 % 0 mm
08:19 11.8 °C 11.1 °C 1020.5 hPa ENE 0.2 km/h 1.6 km/h 95 % 0 mm
08:24 11.8 °C 11.1 °C 1020.5 hPa Calm     95 % 0 mm
08:25 11.9 °C 11.1 °C 1020.5 hPa Calm     95 % 0 mm
08:30 11.9 °C 11.2 °C 1020.5 hPa Calm     95 % 0 mm
08:35 11.9 °C 11.2 °C 1020.5 hPa ENE 0.2 km/h 3.7 km/h 95 % 0 mm
08:40 12.1 °C 11.3 °C 1020.5 hPa Calm   3.7 km/h 95 % 0 mm
08:42 12.1 °C 11.3 °C 1020.2 hPa Calm   5.6 km/h 95 % 0 mm
08:47 12.2 °C 11.6 °C 1020.5 hPa Calm     96 % 0 mm
08:52 12.4 °C 11.8 °C 1020.5 hPa Calm     96 % 0 mm
08:57 12.4 °C 11.8 °C 1020.5 hPa Calm   1.9 km/h 96 % 0 mm
09:02 12.5 °C 11.9 °C 1020.5 hPa Calm     96 % 0 mm
09:08 12.6 °C 12 °C 1020.5 hPa ESE 0.8 km/h 3.7 km/h 96 % 0 mm
09:13 12.6 °C 12 °C 1020.5 hPa SE 4.5 km/h 7.4 km/h 96 % 0 mm
09:18 12.6 °C 11.8 °C 1020.2 hPa SE 0.6 km/h 5.6 km/h 95 % 0 mm
09:23 12.7 °C 11.9 °C 1020.2 hPa SSE 1 km/h 4.8 km/h 95 % 0 mm
09:28 12.8 °C 12 °C 1020.2 hPa SE 4.2 km/h 6.4 km/h 95 % 0 mm
09:33 12.8 °C 12.1 °C 1020.2 hPa SE 3.7 km/h 7.4 km/h 95 % 0 mm
09:38 12.9 °C 12.2 °C 1020.2 hPa SE 1.3 km/h 3.7 km/h 95 % 0 mm
09:43 13.1 °C 12.3 °C 1019.9 hPa Calm   1.9 km/h 95 % 0 mm
09:48 13.2 °C 12.4 °C 1019.9 hPa Calm     95 % 0 mm
09:53 13.3 °C 12.5 °C 1019.9 hPa SSE 1.9 km/h 3.7 km/h 95 % 0 mm
09:58 13.3 °C 12.3 °C 1019.9 hPa SE 2.9 km/h 7.4 km/h 94 % 0 mm
10:03 13.2 °C 11.8 °C 1019.9 hPa SW 3.5 km/h 11.1 km/h 91 % 0 mm
10:08 13.2 °C 11.6 °C 1019.9 hPa SSE 4.8 km/h 11.1 km/h 90 % 0 mm
10:13 13.3 °C 11.5 °C 1019.9 hPa SE 4.7 km/h 9.3 km/h 89 % 0 mm
10:18 13.3 °C 11.5 °C 1019.9 hPa SSE 6.9 km/h 7.4 km/h 89 % 0 mm
10:23 13.3 °C 11.6 °C 1019.9 hPa ESE 1.4 km/h 7.4 km/h 89 % 0 mm
10:28 13.3 °C 11.6 °C 1019.9 hPa SSE 5.1 km/h 8 km/h 89 % 0 mm
10:33 13.3 °C 11.6 °C 1019.5 hPa SSE 8 km/h 11.1 km/h 89 % 0 mm
10:38 13.3 °C 11.7 °C 1019.5 hPa SE 1.8 km/h 5.6 km/h 90 % 0.25 mm
10:43 13.3 °C 11.9 °C 1019.2 hPa SE 2.1 km/h 7.4 km/h 91 % 0.25 mm
10:48 13.4 °C 12.1 °C 1019.2 hPa Calm   1.9 km/h 92 % 0.25 mm
10:53 13.5 °C 12.4 °C 1019.2 hPa Calm   1.9 km/h 93 % 0.51 mm
10:58 13.5 °C 12.4 °C 1018.8 hPa Calm   1.9 km/h 93 % 0.51 mm
11:03 13.5 °C 12.4 °C 1018.8 hPa Calm     93 % 0.51 mm
11:08 13.6 °C 12.4 °C 1018.8 hPa Calm     93 % 0.51 mm
11:14 13.6 °C 12.7 °C 1018.5 hPa Calm   3.7 km/h 94 % 0.51 mm
11:19 13.7 °C 12.7 °C 1018.5 hPa Calm   3.7 km/h 94 % 0.51 mm
11:24 13.7 °C 12.7 °C 1018.5 hPa SE 3.5 km/h 7.4 km/h 94 % 0.76 mm
11:29 13.7 °C 12.7 °C 1018.5 hPa SSE 2.7 km/h 7.4 km/h 94 % 0.76 mm
11:34 13.6 °C 12.7 °C 1018.5 hPa SSE 2.7 km/h 5.6 km/h 94 % 1.02 mm
11:39 13.6 °C 12.7 °C 1018.5 hPa SSE 8.2 km/h 8.2 km/h 94 % 0.76 mm
11:44 13.6 °C 12.7 °C 1018.2 hPa SE 2.7 km/h 5.6 km/h 94 % 1.02 mm
11:49 13.7 °C 12.7 °C 1018.2 hPa SE 4.3 km/h 8 km/h 94 % 1.02 mm
11:54 13.7 °C 12.7 °C 1018.2 hPa SE 1 km/h 5.6 km/h 94 % 0.76 mm
11:55 13.7 °C 12.7 °C 1018.5 hPa SSE 1.4 km/h 4.8 km/h 94 % 0.76 mm
12:00 13.8 °C 13 °C 1018.2 hPa SE 1.8 km/h 5.6 km/h 95 % 1.02 mm
12:05 13.8 °C 13 °C 1018.2 hPa SSE 1 km/h 3.7 km/h 95 % 1.02 mm
12:10 13.8 °C 13 °C 1018.2 hPa SSE 2.3 km/h 7.4 km/h 95 % 1.02 mm
12:15 13.8 °C 13 °C 1017.8 hPa SE 1.4 km/h 9.7 km/h 95 % 1.02 mm
12:20 13.8 °C 13 °C 1017.8 hPa SSE 1 km/h 5.6 km/h 95 % 1.02 mm
12:25 13.8 °C 13.1 °C 1017.8 hPa SE 1.6 km/h 9.7 km/h 95 % 0 mm
12:30 13.8 °C 13.1 °C 1017.8 hPa SE 1.6 km/h 12.9 km/h 95 % 0 mm
12:35 13.8 °C 13.1 °C 1017.8 hPa SE 8 km/h 11.3 km/h 95 % 0 mm
12:40 13.8 °C 13.1 °C 1017.5 hPa SE 1.6 km/h 4.8 km/h 95 % 0 mm
12:45 13.9 °C 13.1 °C 1017.5 hPa SE 4.8 km/h 9.7 km/h 95 % 0 mm
12:50 13.9 °C 13.1 °C 1017.5 hPa Calm   9.7 km/h 95 % 0 mm
12:55 13.9 °C 13.2 °C 1017.5 hPa SE 1.6 km/h 8 km/h 95 % 0 mm
13:01 13.9 °C 13.2 °C 1017.5 hPa SE 1.4 km/h 6.4 km/h 95 % 0.76 mm
13:06 13.9 °C 13.3 °C 1017.5 hPa SE 1.1 km/h 3.7 km/h 96 % 0.76 mm
13:11 13.9 °C 13.3 °C 1017.2 hPa SE 0.6 km/h 3.7 km/h 96 % 0.76 mm
13:16 14.1 °C 13.4 °C 1017.2 hPa Calm   1.9 km/h 96 % 1.02 mm
13:21 14.1 °C 13.5 °C 1017.2 hPa SSE 0.3 km/h 5.6 km/h 96 % 1.02 mm
13:26 14.1 °C 13.5 °C 1017.2 hPa Calm   1.9 km/h 96 % 0.76 mm
13:31 14.1 °C 13.5 °C 1017.2 hPa SSE 5.3 km/h 11.1 km/h 96 % 0.76 mm
13:36 14.1 °C 13.5 °C 1017.2 hPa SE 0.2 km/h 1.9 km/h 96 % 0.76 mm
13:41 14.2 °C 13.6 °C 1017.2 hPa Calm   1.9 km/h 96 % 1.02 mm
13:46 14.2 °C 13.6 °C 1017.2 hPa East 0.6 km/h 1.9 km/h 96 % 0.76 mm
13:51 14.2 °C 13.6 °C 1016.8 hPa Calm   3.7 km/h 96 % 0.76 mm
13:56 14.2 °C 13.6 °C 1016.8 hPa SE 1.8 km/h 6.4 km/h 96 % 0.76 mm
14:01 14.3 °C 13.7 °C 1016.8 hPa Calm     96 % 0.76 mm
14:06 14.3 °C 13.7 °C 1016.5 hPa Calm     96 % 0.76 mm
14:07 14.3 °C 13.7 °C 1016.5 hPa Calm     96 % 0.76 mm
14:12 14.3 °C 13.7 °C 1016.5 hPa Calm   1.9 km/h 96 % 1.02 mm
14:17 14.3 °C 13.7 °C 1016.5 hPa SE 0.8 km/h 5.6 km/h 96 % 1.02 mm
14:22 14.4 °C 13.8 °C 1016.5 hPa Calm   1.9 km/h 96 % 1.27 mm
14:26 14.4 °C 13.8 °C 1016.1 hPa Calm   1.9 km/h 96 % 1.27 mm
14:31 14.5 °C 13.9 °C 1016.1 hPa Calm     96 % 1.27 mm
14:36 14.5 °C 13.9 °C 1016.1 hPa Calm   1.9 km/h 96 % 1.52 mm
14:41 14.6 °C 13.9 °C 1016.1 hPa SE 1.9 km/h 5.6 km/h 96 % 1.27 mm
14:46 14.6 °C 13.9 °C 1016.1 hPa SE 1.3 km/h 1.6 km/h 96 % 1.52 mm
14:51 14.7 °C 14.1 °C 1016.1 hPa SSE 1.6 km/h 3.7 km/h 96 % 1.78 mm
14:56 14.7 °C 14.1 °C 1015.8 hPa SE 2.1 km/h 5.6 km/h 96 % 2.03 mm
15:01 14.8 °C 14.2 °C 1015.8 hPa Calm   1.9 km/h 96 % 1.78 mm
15:06 14.8 °C 14.4 °C 1015.8 hPa Calm     97 % 1.78 mm
15:07 14.8 °C 14.4 °C 1015.8 hPa Calm     97 % 1.52 mm
15:12 14.9 °C 14.5 °C 1015.5 hPa SSE 2.4 km/h 7.4 km/h 97 % 1.52 mm
15:17 15 °C 14.6 °C 1015.5 hPa SE 4.5 km/h 7.4 km/h 97 % 1.27 mm
15:22 15.1 °C 14.6 °C 1015.5 hPa SE 1.1 km/h 5.6 km/h 97 % 1.27 mm
15:27 15.1 °C 14.6 °C 1015.1 hPa SE 1.9 km/h 9.7 km/h 97 % 1.27 mm
15:32 15.2 °C 14.7 °C 1015.1 hPa SE 0.5 km/h 7.4 km/h 97 % 1.52 mm
15:37 15.3 °C 14.8 °C 1015.1 hPa SE 5.3 km/h 9.3 km/h 97 % 1.27 mm
15:42 15.3 °C 14.8 °C 1015.1 hPa SE 2.6 km/h 3.2 km/h 97 % 1.27 mm
15:47 15.3 °C 14.8 °C 1015.1 hPa SSE 0.5 km/h 7.4 km/h 97 % 1.27 mm
15:52 15.4 °C 14.9 °C 1015.1 hPa SE 0.5 km/h 1.9 km/h 97 % 1.27 mm
15:57 15.4 °C 14.9 °C 1015.1 hPa SE 0.5 km/h 1.9 km/h 97 % 1.27 mm
16:02 15.4 °C 14.9 °C 1015.1 hPa SSW 0.6 km/h 5.6 km/h 97 % 1.27 mm
16:08 15.5 °C 15 °C 1014.8 hPa SSE 3.9 km/h 9.3 km/h 97 % 1.52 mm
16:13 15.6 °C 15.1 °C 1014.8 hPa SSE 1.1 km/h 14.8 km/h 97 % 1.78 mm
16:18 15.6 °C 15.1 °C 1014.8 hPa SSE 6.1 km/h 11.1 km/h 97 % 2.03 mm
16:23 15.6 °C 15.1 °C 1014.8 hPa SE 6.3 km/h 13 km/h 97 % 1.78 mm
16:28 15.7 °C 15.2 °C 1014.8 hPa South 4.8 km/h 8 km/h 97 % 1.78 mm
16:33 15.7 °C 15.2 °C 1014.8 hPa SE 1 km/h 7.4 km/h 97 % 1.52 mm
16:38 15.7 °C 15.2 °C 1014.4 hPa SSE 5.8 km/h 11.1 km/h 97 % 1.78 mm
16:43 15.8 °C 15.3 °C 1014.4 hPa SE 2.6 km/h 8 km/h 97 % 1.78 mm
16:48 15.8 °C 15.3 °C 1014.4 hPa SSW 0.3 km/h 1.9 km/h 97 % 1.52 mm
16:53 15.9 °C 15.4 °C 1014.8 hPa SE 0.2 km/h 3.7 km/h 97 % 1.27 mm
16:58 15.9 °C 15.4 °C 1014.4 hPa Calm   1.9 km/h 97 % 1.02 mm
17:03 15.9 °C 15.4 °C 1014.1 hPa SSE 1.9 km/h 7.4 km/h 97 % 0.76 mm
17:08 15.9 °C 15.4 °C 1014.1 hPa SSE 1.8 km/h 5.6 km/h 97 % 0.76 mm
17:13 16 °C 15.5 °C 1014.1 hPa Calm   1.9 km/h 97 % 0.51 mm
17:18 16 °C 15.5 °C 1014.1 hPa SSE 5.3 km/h 7.4 km/h 97 % 0.25 mm
17:23 16 °C 15.5 °C 1014.1 hPa SE 1 km/h 3.2 km/h 97 % 0.25 mm
17:28 16 °C 15.5 °C 1013.8 hPa SE 2.6 km/h 4.8 km/h 97 % 0.51 mm
17:33 16 °C 15.5 °C 1014.1 hPa Calm   1.9 km/h 97 % 0.51 mm
17:38 16.1 °C 15.6 °C 1013.8 hPa SE 4.8 km/h 4.8 km/h 97 % 0.25 mm
17:44 16 °C 15.5 °C 1013.8 hPa SE 1.1 km/h 9.3 km/h 97 % 0.25 mm
17:48 16 °C 15.5 °C 1013.8 hPa SSE 1.1 km/h 7.4 km/h 97 % 0.25 mm
17:53 16 °C 15.5 °C 1013.8 hPa Calm   3.7 km/h 97 % 0.51 mm
17:58 16 °C 15.5 °C 1013.4 hPa SSE 3.5 km/h 13 km/h 97 % 0.51 mm
18:03 16 °C 15.5 °C 1013.4 hPa West 0.3 km/h 5.6 km/h 97 % 0.76 mm
18:08 16 °C 15.5 °C 1013.4 hPa South 0.3 km/h 3.7 km/h 97 % 0.76 mm
18:13 16.1 °C 15.6 °C 1013.4 hPa NW 0.3 km/h 1.9 km/h 97 % 1.27 mm
18:19 16.1 °C 15.6 °C 1013.4 hPa Calm   5.6 km/h 97 % 1.78 mm
18:24 16.1 °C 15.6 °C 1013.1 hPa Calm   1.9 km/h 97 % 2.29 mm
18:29 16 °C 15.5 °C 1013.1 hPa SSE 2.9 km/h 6.4 km/h 97 % 2.29 mm
18:34 16 °C 15.5 °C 1013.1 hPa SSE 5 km/h 5 km/h 97 % 2.29 mm
18:39 15.9 °C 15.4 °C 1013.1 hPa South 0.8 km/h 4.8 km/h 97 % 2.54 mm
18:44 16 °C 15.5 °C 1013.1 hPa SSE 2.3 km/h 5.6 km/h 97 % 2.79 mm
18:49 15.9 °C 15.4 °C 1013.1 hPa SSW 5.5 km/h 18.5 km/h 97 % 3.3 mm
18:54 15.9 °C 15.4 °C 1013.1 hPa SSE 1 km/h 5.6 km/h 97 % 3.05 mm
18:59 15.9 °C 15.4 °C 1013.1 hPa SSW 1.3 km/h 5.6 km/h 97 % 3.05 mm
19:04 15.9 °C 15.4 °C 1013.1 hPa South 0.5 km/h 1.9 km/h 97 % 2.79 mm
19:09 15.9 °C 15.4 °C 1013.1 hPa South 1.1 km/h 5.6 km/h 97 % 2.54 mm
19:14 15.9 °C 15.4 °C 1013.4 hPa South 2.4 km/h 5.6 km/h 97 % 2.29 mm
19:19 15.8 °C 15.3 °C 1013.4 hPa WSW 1.4 km/h 5.6 km/h 97 % 1.78 mm
19:24 15.8 °C 15.3 °C 1013.1 hPa WSW 0.2 km/h 1.6 km/h 97 % 1.27 mm
19:29 15.8 °C 15.3 °C 1013.1 hPa WSW 0.3 km/h 3.7 km/h 97 % 1.02 mm
19:34 15.8 °C 15.3 °C 1013.4 hPa WSW 1.9 km/h 4.8 km/h 97 % 1.27 mm
19:39 15.8 °C 15.3 °C 1013.1 hPa Calm     97 % 1.02 mm
19:44 15.8 °C 15.3 °C 1013.4 hPa WSW 1.3 km/h 9.3 km/h 97 % 0.76 mm
19:49 15.8 °C 15.3 °C 1013.1 hPa Calm   1.9 km/h 97 % 0.25 mm
19:54 15.8 °C 15.3 °C 1013.1 hPa WSW 2.1 km/h 8 km/h 97 % 0.25 mm
19:59 15.8 °C 15.3 °C 1013.1 hPa Calm     97 % 0.25 mm
20:04 15.8 °C 15.3 °C 1013.4 hPa WSW 0.2 km/h 1.9 km/h 97 % 0.25 mm
20:09 15.8 °C 15.3 °C 1013.4 hPa Calm     97 % 0.25 mm
20:14 15.8 °C 15.3 °C 1013.1 hPa Calm   1.9 km/h 97 % 0.25 mm
20:19 15.8 °C 15.3 °C 1013.1 hPa WSW 0.2 km/h 1.9 km/h 97 % 0.25 mm
20:24 15.8 °C 15.3 °C 1013.1 hPa WSW 1.9 km/h 5.6 km/h 97 % 0.25 mm
20:29 15.8 °C 15.3 °C 1013.1 hPa WSW 0.3 km/h 3.7 km/h 97 % 0.25 mm
20:34 15.8 °C 15.3 °C 1013.1 hPa WSW 1.3 km/h 1.9 km/h 97 % 0 mm
20:39 15.8 °C 15.3 °C 1013.1 hPa Calm     97 % 0 mm
20:44 15.8 °C 15.3 °C 1013.4 hPa WSW 0.2 km/h 5.6 km/h 97 % 0 mm
20:49 15.8 °C 15.3 °C 1013.4 hPa WSW 0.8 km/h 4.8 km/h 97 % 0 mm
20:54 15.8 °C 15.3 °C 1013.1 hPa Calm     97 % 0 mm
20:59 15.8 °C 15.3 °C 1013.1 hPa WSW 0.6 km/h 3.7 km/h 97 % 0 mm
21:04 15.8 °C 15.3 °C 1013.1 hPa Calm     97 % 0 mm
21:09 15.8 °C 15.3 °C 1013.1 hPa WSW 0.5 km/h 1.9 km/h 97 % 0 mm
21:14 15.8 °C 15.3 °C 1013.1 hPa WSW 0.5 km/h 1.6 km/h 97 % 0 mm
21:20 15.8 °C 15.3 °C 1013.1 hPa Calm   5.6 km/h 97 % 0 mm
21:25 15.8 °C 15.3 °C 1013.1 hPa WSW 1 km/h 5.6 km/h 97 % 0 mm
21:30 15.8 °C 15.3 °C 1013.1 hPa WSW 1.6 km/h 3.2 km/h 97 % 0 mm
21:35 15.8 °C 15.3 °C 1013.1 hPa Calm   1.9 km/h 97 % 0 mm
21:40 15.8 °C 15.3 °C 1013.1 hPa Calm     97 % 0 mm
21:45 15.8 °C 15.3 °C 1013.1 hPa WSW 0.3 km/h   97 % 0 mm
21:50 15.8 °C 15.3 °C 1013.4 hPa WSW 0.8 km/h 5.6 km/h 97 % 0 mm
21:55 15.8 °C 15.3 °C 1013.1 hPa WSW 1.9 km/h 4.8 km/h 97 % 0 mm
22:00 15.8 °C 15.3 °C 1013.1 hPa Calm   1.9 km/h 97 % 0 mm
22:05 15.8 °C 15.3 °C 1013.1 hPa Calm   3.7 km/h 97 % 0 mm
22:10 15.8 °C 15.3 °C 1013.1 hPa Calm     97 % 0 mm
22:15 15.8 °C 15.3 °C 1013.4 hPa Calm     97 % 0 mm
22:20 15.8 °C 15.3 °C 1013.1 hPa WSW 0.2 km/h 1.9 km/h 97 % 0 mm
22:25 15.7 °C 15.2 °C 1013.1 hPa Calm     97 % 0 mm
22:30 15.7 °C 15.2 °C 1013.1 hPa Calm   1.9 km/h 97 % 0 mm
22:35 15.6 °C 15.1 °C 1013.4 hPa Calm     97 % 0 mm
22:40 15.5 °C 15 °C 1013.1 hPa NNW 2.4 km/h 4.8 km/h 97 % 0 mm
22:45 15.4 °C 14.8 °C 1013.1 hPa NNW 0.3 km/h 1.9 km/h 96 % 0 mm
22:50 15.3 °C 14.7 °C 1013.1 hPa Calm   1.9 km/h 96 % 0 mm
22:55 15.2 °C 14.6 °C 1012.8 hPa North 1.4 km/h 3.7 km/h 96 % 0 mm
23:00 15.1 °C 14.5 °C 1012.8 hPa NNE 0.2 km/h 3.7 km/h 96 % 0 mm
23:05 15 °C 14.4 °C 1012.8 hPa Calm   3.7 km/h 96 % 0 mm
23:10 14.9 °C 14.3 °C 1012.8 hPa Calm     96 % 0 mm
23:15 14.9 °C 14.3 °C 1012.8 hPa North 1.3 km/h 5.6 km/h 96 % 0 mm
23:20 14.8 °C 14.2 °C 1013.1 hPa North 1 km/h 5.6 km/h 96 % 0 mm
23:25 14.8 °C 14.2 °C 1013.1 hPa North 1.3 km/h 5.6 km/h 96 % 0 mm
23:30 14.7 °C 14.1 °C 1013.1 hPa North 0.6 km/h 1.9 km/h 96 % 0 mm
23:35 14.7 °C 14.1 °C 1013.1 hPa Calm   1.9 km/h 96 % 0 mm
23:40 14.7 °C 14.1 °C 1013.1 hPa Calm     96 % 0 mm
23:45 14.6 °C 14 °C 1013.1 hPa North 0.5 km/h 3.7 km/h 96 % 0 mm
23:50 14.6 °C 13.9 °C 1013.1 hPa North 1.1 km/h 1.6 km/h 96 % 0 mm
23:55 14.6 °C 13.9 °C 1013.1 hPa North 1.8 km/h 5.6 km/h 96 % 0 mm
Crab Meadow Weather
Compliments of Weather Underground - 3 mb

Script developed by  Jim McMurry - jmcmurry@mwt.net Adapted for the template by  Wim van der Kuil - Leuven-Template.eu

Humidity: Humidity is the amount of water vapor in the air. The term "humidity" refers to relative humidity. Relative humidity is defined as the amount of water vapor in a sample of air compared to the maximum amount of water vapor the air can hold at any specific temperature in a form of 0 to 100%. Relative humidity is important in forecasting weather. Humidity indicates the likelihood of precipitation, dew, or fog. High humidity makes people feel hotter outside in the summer because it reduces the effectiveness of sweating to cool the body by preventing the evaporation of perspiration from the skin.